Flight Track Log - Related Links

Times and Time Zones

All times are in EDT time to prevent confusion due to time zone crossing. See the EMD27 flight status page for this flight to view local times or setup timezone preferences in your user account.

Time Position Orientation Groundspeed Altitude Reporting Facility
EDT Latitude Longitude Course Direction KTS MPH feet Rate Location/Type
Wed 10:57:33 PM 36.8419 -84.2036 253° West 152 175 2,900  Level Indianapolis Center
Wed 10:58:34 PM 36.8333 -84.2528 258° West 149 171 4,300 1,328 Climbing Indianapolis Center
Wed 10:59:35 PM 36.8161 -84.3039 247° West 154 177 5,600 1,220 Climbing Indianapolis Center
Wed 11:00:37 PM 36.8008 -84.3625 252° West 171 197 6,800 1,171 Climbing Indianapolis Center
Wed 11:01:38 PM 36.7842 -84.4183 250° West 173 199 8,000 1,230 Climbing Indianapolis Center
Wed 11:02:00 PM 36.6629 -84.6485 253° West  Level FlightAware
Wed 11:02:39 PM 36.7667 -84.4853 252° West 173 199 9,300  Level Indianapolis Center
Wed 11:03:40 PM 36.7489 -84.5475 250° West 185 213 10,000 341 Climbing Indianapolis Center
Wed 11:04:42 PM 36.7278 -84.6208 250° West 218 251 10,000  Level Indianapolis Center
Wed 11:05:43 PM 36.7058 -84.7000 251° West 239 275 10,000  Level Indianapolis Center
Wed 11:06:44 PM 36.6819 -84.7806 250° West 247 284 10,000  Level Indianapolis Center
Wed 11:07:46 PM 36.6600 -84.8622 252° West 249 287 10,000  Level Indianapolis Center
Wed 11:08:47 PM 36.6361 -84.9419 250° West 248 285 10,000  Level Indianapolis Center
Wed 11:09:48 PM 36.6136 -85.0219 251° West 247 284 10,000  Level Indianapolis Center
Wed 11:10:49 PM 36.5908 -85.1014 250° West 245 282 10,000  Level Indianapolis Center
Wed 11:11:51 PM 36.5681 -85.1811 250° West 245 282 10,000  Level Indianapolis Center
Wed 11:12:52 PM 36.5392 -85.2775 250° West 248 285 10,000  Level Indianapolis Center
Wed 11:13:53 PM 36.5161 -85.3572 250° West 247 284 10,000  Level Indianapolis Center
Wed 11:14:55 PM 36.4931 -85.4381 250° West 249 287 10,000  Level Indianapolis Center
Wed 11:15:56 PM 36.4697 -85.5181 250° West 248 285 10,000  Level Indianapolis Center
Wed 11:16:57 PM 36.4469 -85.5981 251° West 246 283 10,000 -198 Level Indianapolis Center
Wed 11:17:57 PM 36.4206 -85.6789 248° West 255 293 9,600 -850 Descending Memphis Center
Wed 11:18:57 PM 36.3944 -85.7628 249° West 255 293 8,300 -800 Descending Memphis Center
Wed 11:19:57 PM 36.3708 -85.8569 253° West 260 299 8,000 -150 Descending Memphis Center
Wed 11:20:57 PM 36.3464 -85.9331 248° West 247 284 8,000  Level Memphis Center
Wed 11:21:57 PM 36.3242 -86.0114 251° West 247 284 8,000  Level Memphis Center
Wed 11:22:57 PM 36.3036 -86.0794 249° West 247 284 8,000  Level Memphis Center
Wed 11:23:57 PM 36.2814 -86.1581 251° West 247 284 8,000  Level Memphis Center
Wed 11:24:57 PM 36.2736 -86.2408 263° West 242 278 8,000 -150 Level Memphis Center
Wed 11:25:57 PM 36.2658 -86.3208 263° West 242 278 7,700 -800 Descending Memphis Center
Wed 11:26:57 PM 36.2519 -86.4092 259° West 242 278 6,400 -1,300 Descending Memphis Center
Wed 11:27:57 PM 36.2406 -86.5075 262° West 258 297 5,100 -750 Descending Memphis Center
Wed 11:28:57 PM 36.2344 -86.5850 264° West 242 278 4,900 -650 Descending Memphis Center
Wed 11:29:57 PM 36.2239 -86.6419 257° West 210 242 3,800 -1,200 Descending Memphis Center
Wed 11:30:57 PM 36.1847 -86.6567 197° South 146 168 2,500 -1,200 Descending Memphis Center
Wed 11:31:57 PM 36.1536 -86.6683 197° South 134 154 1,400 -1,100 Descending Memphis Center
Wed 11:34:00 PM 36.1167 -86.6667 253° West  Level FlightAware
Wed 11:41:00 PM 36.1245 -86.6782 253° West  Level Estimated
Wed 11:42:00 PM 36.1245 -86.6782 253° West  Level Estimated
Wed 11:43:00 PM 36.1245 -86.6782 253° West  Level Estimated
Wed 11:44:00 PM 36.1245 -86.6782 253° West  Level Estimated
Wed 11:45:00 PM 36.1245 -86.6782 253° West  Level Estimated
Wed 11:46:00 PM 36.1245 -86.6782 253° West  Level Estimated
Wed 11:47:00 PM 36.1245 -86.6782 253° West  Level Estimated
Wed 11:48:00 PM 36.1245 -86.6782 253° West  Level Estimated

Login

Don't have an account? Register now (free) for customized features, flight alerts, and more!